SKCL/CLO METAR and TAF weather

Enter ICAO airport designator
Station Type Date Time Source
SKCL METAR 2020/01/24 21:00 UTC NOAA

SKCL 242100Z 03003KT 9000 FEW020 BKN300 30/18 A2988 NOSIG RMK HZ


Station Type Date Time Source
SKCL Decoded METAR 2020/01/24 21:00 UTC NOAA

Cali / Alfonso Bonillaaragon, Colombia (SKCL) 03-33N 076-23W 969M
Jan 24, 2020 - 04:00 PM EST / 2020.01.24 2100 UTC
Wind: from the NNE (030 degrees) at 3 MPH (3 KT):0
Visibility: 5 mile(s):0
Sky conditions: mostly cloudy
Temperature: 86 F (30 C)
Dew Point: 64 F (18 C)
Relative Humidity: 48%
Pressure (altimeter): 29.88 in. Hg (1011 hPa)
ob: SKCL 242100Z 03003KT 9000 FEW020 BKN300 30/18 A2988 NOSIG RMK HZ
cycle: 21

Station Type Date Time Source
SKCL TAF 2020/01/24 18:39 UTC NOAA

TAF SKCL 241630Z 2418/2518 32008KT 9999 SCT020 BKN250
TEMPO 2420/2424 SCT018TCU
BECMG 2500/2502 VRB03KT SCT017 BKN100
TEMPO 2504/2507 8000 VCSH
TEMPO 2510/2514 7000 VCFG TX32/2419Z TN19/2511Z

Example: see airport list